sensor_id;sensor_type;location;lat;lon;timestamp;pressure;altitude;pressure_sealevel;temperature;humidity
49108;BME280;36693;47.666;-2.774;2022-07-29T11:49:45;101322.00;;;30.27;24.18
49108;BME280;36693;47.666;-2.774;2022-07-29T11:52:13;101317.56;;;31.06;23.33
49108;BME280;36693;47.666;-2.774;2022-07-29T11:54:43;101320.82;;;31.75;22.40
49108;BME280;36693;47.666;-2.774;2022-07-29T11:57:11;101323.93;;;31.68;22.07
49108;BME280;36693;47.666;-2.774;2022-07-29T11:59:40;101325.65;;;31.11;22.78
49108;BME280;36693;47.666;-2.774;2022-07-29T12:02:08;101328.93;;;33.23;21.31
49108;BME280;36693;47.666;-2.774;2022-07-29T12:04:48;101330.27;;;33.15;20.69
49108;BME280;36693;47.666;-2.774;2022-07-29T12:07:16;101331.63;;;32.75;20.86
49108;BME280;36693;47.666;-2.774;2022-07-29T12:09:50;101329.81;;;32.74;21.07
49108;BME280;36693;47.666;-2.774;2022-07-29T12:12:19;101327.31;;;32.06;22.24
49108;BME280;36693;47.666;-2.774;2022-07-29T12:14:47;101332.26;;;32.47;21.06
49108;BME280;36693;47.666;-2.774;2022-07-29T12:17:26;101328.06;;;32.57;20.88
49108;BME280;36693;47.666;-2.774;2022-07-29T12:19:55;101326.99;;;32.52;20.60
49108;BME280;36693;47.666;-2.774;2022-07-29T12:22:26;101333.58;;;33.08;20.23
49108;BME280;36693;47.666;-2.774;2022-07-29T12:24:55;101335.27;;;33.05;20.58
49108;BME280;36693;47.666;-2.774;2022-07-29T12:27:23;101337.41;;;32.43;21.11
49108;BME280;36693;47.666;-2.774;2022-07-29T12:29:56;101339.21;;;32.57;21.15
49108;BME280;36693;47.666;-2.774;2022-07-29T12:32:24;101342.18;;;32.25;21.68
49108;BME280;36693;47.666;-2.774;2022-07-29T12:34:58;101340.62;;;32.39;21.46
49108;BME280;36693;47.666;-2.774;2022-07-29T12:37:26;101341.98;;;31.10;22.70
49108;BME280;36693;47.666;-2.774;2022-07-29T12:39:54;101349.78;;;31.43;21.72
49108;BME280;36693;47.666;-2.774;2022-07-29T12:42:22;101347.20;;;32.13;21.25
49108;BME280;36693;47.666;-2.774;2022-07-29T12:44:50;101346.27;;;32.05;21.94
49108;BME280;36693;47.666;-2.774;2022-07-29T12:47:19;101349.67;;;31.66;22.99
49108;BME280;36693;47.666;-2.774;2022-07-29T12:49:49;101348.02;;;31.34;23.57
49108;BME280;36693;47.666;-2.774;2022-07-29T12:52:33;101347.25;;;30.47;24.29
49108;BME280;36693;47.666;-2.774;2022-07-29T12:55:01;101337.69;;;30.67;24.52
49108;BME280;36693;47.666;-2.774;2022-07-29T12:57:30;101332.55;;;30.22;24.92
49108;BME280;36693;47.666;-2.774;2022-07-29T13:00:03;101327.72;;;31.01;24.45
49108;BME280;36693;47.666;-2.774;2022-07-29T13:02:31;101325.62;;;31.04;23.93
49108;BME280;36693;47.666;-2.774;2022-07-29T13:05:01;101329.61;;;31.01;23.52
49108;BME280;36693;47.666;-2.774;2022-07-29T13:07:29;101329.99;;;31.65;22.80
49108;BME280;36693;47.666;-2.774;2022-07-29T13:10:12;101331.54;;;31.41;22.56
49108;BME280;36693;47.666;-2.774;2022-07-29T13:13:02;101332.79;;;30.93;23.26
49108;BME280;36693;47.666;-2.774;2022-07-29T13:15:31;101332.38;;;31.59;22.18
49108;BME280;36693;47.666;-2.774;2022-07-29T13:17:59;101332.14;;;32.16;21.41
49108;BME280;36693;47.666;-2.774;2022-07-29T13:20:29;101327.53;;;32.44;21.92
49108;BME280;36693;47.666;-2.774;2022-07-29T13:22:57;101327.66;;;32.85;21.55
49108;BME280;36693;47.666;-2.774;2022-07-29T13:25:27;101327.89;;;32.83;21.13
49108;BME280;36693;47.666;-2.774;2022-07-29T13:27:56;101320.51;;;32.17;21.90
49108;BME280;36693;47.666;-2.774;2022-07-29T13:30:24;101329.40;;;31.32;23.41
49108;BME280;36693;47.666;-2.774;2022-07-29T13:32:52;101333.24;;;31.14;23.47
49108;BME280;36693;47.666;-2.774;2022-07-29T13:35:20;101335.71;;;31.37;22.59
49108;BME280;36693;47.666;-2.774;2022-07-29T13:37:47;101337.02;;;30.85;23.72
49108;BME280;36693;47.666;-2.774;2022-07-29T13:40:15;101335.93;;;31.76;23.03
49108;BME280;36693;47.666;-2.774;2022-07-29T13:42:43;101329.59;;;31.64;22.50
49108;BME280;36693;47.666;-2.774;2022-07-29T13:45:11;101322.57;;;32.41;21.90
49108;BME280;36693;47.666;-2.774;2022-07-29T13:47:39;101308.28;;;31.55;22.51
49108;BME280;36693;47.666;-2.774;2022-07-29T13:50:09;101305.19;;;31.79;24.03
49108;BME280;36693;47.666;-2.774;2022-07-29T13:52:37;101313.29;;;30.94;25.89
49108;BME280;36693;47.666;-2.774;2022-07-29T13:55:06;101315.15;;;32.08;24.64
49108;BME280;36693;47.666;-2.774;2022-07-29T13:57:34;101315.12;;;30.94;25.99
49108;BME280;36693;47.666;-2.774;2022-07-29T14:00:02;101308.98;;;31.75;25.35
49108;BME280;36693;47.666;-2.774;2022-07-29T14:02:32;101322.21;;;31.28;25.65
49108;BME280;36693;47.666;-2.774;2022-07-29T14:04:59;101329.15;;;31.40;25.63
49108;BME280;36693;47.666;-2.774;2022-07-29T14:07:32;101342.87;;;31.72;26.15
49108;BME280;36693;47.666;-2.774;2022-07-29T14:10:00;101342.06;;;31.42;24.66
49108;BME280;36693;47.666;-2.774;2022-07-29T14:12:27;101337.87;;;32.38;22.50
49108;BME280;36693;47.666;-2.774;2022-07-29T14:14:55;101338.47;;;32.02;23.28
49108;BME280;36693;47.666;-2.774;2022-07-29T14:17:23;101344.92;;;31.68;24.62
49108;BME280;36693;47.666;-2.774;2022-07-29T14:19:51;101344.09;;;31.93;23.88
49108;BME280;36693;47.666;-2.774;2022-07-29T14:22:18;101345.07;;;32.22;24.19
49108;BME280;36693;47.666;-2.774;2022-07-29T14:24:46;101338.65;;;32.36;24.59
49108;BME280;36693;47.666;-2.774;2022-07-29T14:27:14;101344.76;;;32.46;23.27
49108;BME280;36693;47.666;-2.774;2022-07-29T14:29:42;101345.71;;;33.14;21.42
49108;BME280;36693;47.666;-2.774;2022-07-29T14:32:10;101349.86;;;32.67;23.76
49108;BME280;36693;47.666;-2.774;2022-07-29T14:34:38;101349.09;;;31.59;23.85
49108;BME280;36693;47.666;-2.774;2022-07-29T14:37:07;101345.00;;;31.23;24.72
49108;BME280;36693;47.666;-2.774;2022-07-29T14:39:35;101348.44;;;31.48;25.19
49108;BME280;36693;47.666;-2.774;2022-07-29T14:42:03;101340.96;;;31.94;23.90
49108;BME280;36693;47.666;-2.774;2022-07-29T14:44:30;101338.84;;;31.83;24.75
49108;BME280;36693;47.666;-2.774;2022-07-29T14:46:58;101329.92;;;32.35;22.52
49108;BME280;36693;47.666;-2.774;2022-07-29T14:49:26;101331.74;;;31.59;22.44
49108;BME280;36693;47.666;-2.774;2022-07-29T14:51:54;101335.07;;;32.67;21.22
49108;BME280;36693;47.666;-2.774;2022-07-29T14:54:22;101338.54;;;32.70;21.46
49108;BME280;36693;47.666;-2.774;2022-07-29T14:56:49;101336.32;;;32.16;22.67
49108;BME280;36693;47.666;-2.774;2022-07-29T14:59:17;101344.20;;;31.47;22.83
49108;BME280;36693;47.666;-2.774;2022-07-29T15:01:44;101339.16;;;32.42;22.95
49108;BME280;36693;47.666;-2.774;2022-07-29T15:04:12;101336.72;;;32.22;22.24
49108;BME280;36693;47.666;-2.774;2022-07-29T15:06:40;101338.50;;;32.33;22.39
49108;BME280;36693;47.666;-2.774;2022-07-29T15:09:08;101347.33;;;31.92;22.72
49108;BME280;36693;47.666;-2.774;2022-07-29T15:11:35;101343.08;;;32.32;22.77
49108;BME280;36693;47.666;-2.774;2022-07-29T15:14:03;101345.98;;;32.45;22.20
49108;BME280;36693;47.666;-2.774;2022-07-29T15:16:31;101348.36;;;32.57;22.01
49108;BME280;36693;47.666;-2.774;2022-07-29T15:18:59;101353.53;;;32.18;22.11
49108;BME280;36693;47.666;-2.774;2022-07-29T15:21:27;101353.22;;;32.80;21.79
49108;BME280;36693;47.666;-2.774;2022-07-29T15:23:55;101351.55;;;33.01;21.49
49108;BME280;36693;47.666;-2.774;2022-07-29T15:26:22;101351.25;;;32.76;22.05
49108;BME280;36693;47.666;-2.774;2022-07-29T15:28:50;101350.04;;;33.11;21.61
49108;BME280;36693;47.666;-2.774;2022-07-29T15:31:18;101352.18;;;32.79;21.64
49108;BME280;36693;47.666;-2.774;2022-07-29T15:33:45;101350.56;;;32.21;22.43
49108;BME280;36693;47.666;-2.774;2022-07-29T15:36:13;101356.81;;;32.84;21.48
49108;BME280;36693;47.666;-2.774;2022-07-29T15:38:41;101354.16;;;32.07;22.91
49108;BME280;36693;47.666;-2.774;2022-07-29T15:41:09;101356.53;;;31.64;23.52
49108;BME280;36693;47.666;-2.774;2022-07-29T15:43:36;101361.86;;;31.12;24.17
49108;BME280;36693;47.666;-2.774;2022-07-29T15:46:04;101361.58;;;32.53;23.11
49108;BME280;36693;47.666;-2.774;2022-07-29T15:48:32;101361.82;;;31.87;23.61
49108;BME280;36693;47.666;-2.774;2022-07-29T15:50:59;101362.60;;;31.30;24.19
49108;BME280;36693;47.666;-2.774;2022-07-29T15:53:27;101357.73;;;30.33;25.61
49108;BME280;36693;47.666;-2.774;2022-07-29T15:55:55;101354.08;;;29.70;26.06
49108;BME280;36693;47.666;-2.774;2022-07-29T15:58:22;101356.93;;;30.12;25.12
49108;BME280;36693;47.666;-2.774;2022-07-29T16:00:50;101352.28;;;30.31;25.34
49108;BME280;36693;47.666;-2.774;2022-07-29T16:03:18;101352.84;;;30.05;25.93
49108;BME280;36693;47.666;-2.774;2022-07-29T16:05:47;101355.72;;;30.49;25.58
49108;BME280;36693;47.666;-2.774;2022-07-29T16:08:17;101350.03;;;30.11;26.39
49108;BME280;36693;47.666;-2.774;2022-07-29T16:10:47;101351.89;;;29.74;26.57
49108;BME280;36693;47.666;-2.774;2022-07-29T16:13:16;101349.79;;;29.91;26.13
49108;BME280;36693;47.666;-2.774;2022-07-29T16:15:47;101353.61;;;30.86;25.25
49108;BME280;36693;47.666;-2.774;2022-07-29T16:18:15;101350.08;;;30.95;25.10
49108;BME280;36693;47.666;-2.774;2022-07-29T16:20:46;101343.39;;;30.93;24.87
49108;BME280;36693;47.666;-2.774;2022-07-29T16:23:16;101338.81;;;30.40;25.48
49108;BME280;36693;47.666;-2.774;2022-07-29T16:25:45;101338.66;;;30.35;25.59
49108;BME280;36693;47.666;-2.774;2022-07-29T16:28:13;101334.51;;;29.68;26.16
49108;BME280;36693;47.666;-2.774;2022-07-29T16:30:48;101333.27;;;29.93;26.27
49108;BME280;36693;47.666;-2.774;2022-07-29T16:33:18;101331.78;;;29.18;26.03
49108;BME280;36693;47.666;-2.774;2022-07-29T16:35:46;101340.24;;;30.73;25.38
49108;BME280;36693;47.666;-2.774;2022-07-29T16:38:17;101339.74;;;30.52;25.16
49108;BME280;36693;47.666;-2.774;2022-07-29T16:40:49;101338.00;;;30.83;24.91
49108;BME280;36693;47.666;-2.774;2022-07-29T16:43:17;101339.71;;;30.94;25.07
49108;BME280;36693;47.666;-2.774;2022-07-29T16:45:57;101333.41;;;30.67;25.28
49108;BME280;36693;47.666;-2.774;2022-07-29T16:48:30;101329.73;;;29.99;25.52
49108;BME280;36693;47.666;-2.774;2022-07-29T16:51:00;101324.55;;;30.15;25.93
49108;BME280;36693;47.666;-2.774;2022-07-29T16:53:30;101330.78;;;30.08;26.04
49108;BME280;36693;47.666;-2.774;2022-07-29T16:56:01;101333.12;;;30.26;25.63
49108;BME280;36693;47.666;-2.774;2022-07-29T16:58:30;101336.63;;;29.95;25.68
49108;BME280;36693;47.666;-2.774;2022-07-29T17:01:00;101336.59;;;30.84;25.17
49108;BME280;36693;47.666;-2.774;2022-07-29T17:03:30;101335.17;;;30.01;25.45
49108;BME280;36693;47.666;-2.774;2022-07-29T17:05:59;101339.06;;;30.17;25.55
49108;BME280;36693;47.666;-2.774;2022-07-29T17:08:29;101340.48;;;30.43;25.31
49108;BME280;36693;47.666;-2.774;2022-07-29T17:10:59;101337.50;;;29.97;25.66
49108;BME280;36693;47.666;-2.774;2022-07-29T17:13:31;101335.64;;;29.62;26.67
49108;BME280;36693;47.666;-2.774;2022-07-29T17:15:59;101336.45;;;29.78;26.46
49108;BME280;36693;47.666;-2.774;2022-07-29T17:18:27;101333.32;;;29.45;26.81
49108;BME280;36693;47.666;-2.774;2022-07-29T17:20:54;101338.22;;;29.89;26.35
49108;BME280;36693;47.666;-2.774;2022-07-29T17:23:23;101346.64;;;29.59;27.05
49108;BME280;36693;47.666;-2.774;2022-07-29T17:25:53;101353.84;;;29.09;27.02
49108;BME280;36693;47.666;-2.774;2022-07-29T17:28:23;101359.34;;;29.67;26.75
49108;BME280;36693;47.666;-2.774;2022-07-29T17:30:58;101366.68;;;29.97;26.35
49108;BME280;36693;47.666;-2.774;2022-07-29T17:33:31;101365.95;;;29.83;26.74
49108;BME280;36693;47.666;-2.774;2022-07-29T17:36:00;101369.64;;;28.99;27.51
49108;BME280;36693;47.666;-2.774;2022-07-29T17:38:30;101370.61;;;29.48;27.09
49108;BME280;36693;47.666;-2.774;2022-07-29T17:40:58;101371.76;;;29.64;26.87
49108;BME280;36693;47.666;-2.774;2022-07-29T17:43:28;101377.77;;;29.39;26.96
49108;BME280;36693;47.666;-2.774;2022-07-29T17:45:57;101378.93;;;29.17;27.39
49108;BME280;36693;47.666;-2.774;2022-07-29T17:48:27;101387.86;;;28.93;27.65
49108;BME280;36693;47.666;-2.774;2022-07-29T17:50:56;101391.26;;;28.61;27.66
49108;BME280;36693;47.666;-2.774;2022-07-29T17:53:24;101391.30;;;28.53;28.04
49108;BME280;36693;47.666;-2.774;2022-07-29T17:55:53;101394.62;;;28.61;27.87
49108;BME280;36693;47.666;-2.774;2022-07-29T17:58:23;101393.68;;;28.16;28.30
49108;BME280;36693;47.666;-2.774;2022-07-29T18:00:57;101396.64;;;28.32;28.84
49108;BME280;36693;47.666;-2.774;2022-07-29T18:03:26;101402.74;;;28.16;28.55
49108;BME280;36693;47.666;-2.774;2022-07-29T18:05:58;101403.73;;;28.68;28.31
49108;BME280;36693;47.666;-2.774;2022-07-29T18:08:28;101403.05;;;28.44;28.16
49108;BME280;36693;47.666;-2.774;2022-07-29T18:11:04;101407.86;;;28.75;27.86
49108;BME280;36693;47.666;-2.774;2022-07-29T18:13:33;101402.30;;;28.07;28.74
49108;BME280;36693;47.666;-2.774;2022-07-29T18:16:04;101400.74;;;28.11;28.72
49108;BME280;36693;47.666;-2.774;2022-07-29T18:18:31;101400.07;;;28.06;29.23
49108;BME280;36693;47.666;-2.774;2022-07-29T18:21:00;101404.69;;;28.05;28.82
49108;BME280;36693;47.666;-2.774;2022-07-29T18:23:27;101407.13;;;27.86;29.50
49108;BME280;36693;47.666;-2.774;2022-07-29T18:25:55;101409.31;;;27.68;29.83
49108;BME280;36693;47.666;-2.774;2022-07-29T18:28:23;101411.08;;;27.77;29.58
49108;BME280;36693;47.666;-2.774;2022-07-29T18:30:50;101409.42;;;27.82;29.51
49108;BME280;36693;47.666;-2.774;2022-07-29T18:33:18;101417.01;;;27.47;30.16
49108;BME280;36693;47.666;-2.774;2022-07-29T18:35:47;101410.21;;;27.72;29.41
49108;BME280;36693;47.666;-2.774;2022-07-29T18:38:15;101411.88;;;28.55;28.36
49108;BME280;36693;47.666;-2.774;2022-07-29T18:40:43;101411.36;;;28.41;28.52
49108;BME280;36693;47.666;-2.774;2022-07-29T18:43:12;101408.40;;;28.80;27.88
49108;BME280;36693;47.666;-2.774;2022-07-29T18:45:39;101411.09;;;28.73;27.91
49108;BME280;36693;47.666;-2.774;2022-07-29T18:48:07;101411.65;;;28.02;29.04
49108;BME280;36693;47.666;-2.774;2022-07-29T18:50:35;101414.81;;;28.81;28.29
49108;BME280;36693;47.666;-2.774;2022-07-29T18:53:03;101411.93;;;28.13;28.98
49108;BME280;36693;47.666;-2.774;2022-07-29T18:55:31;101416.93;;;28.24;28.91
49108;BME280;36693;47.666;-2.774;2022-07-29T18:57:59;101418.01;;;28.07;28.86
49108;BME280;36693;47.666;-2.774;2022-07-29T19:00:26;101423.15;;;28.60;28.35
49108;BME280;36693;47.666;-2.774;2022-07-29T19:02:54;101426.60;;;28.13;29.44
49108;BME280;36693;47.666;-2.774;2022-07-29T19:05:22;101431.54;;;27.57;30.07
49108;BME280;36693;47.666;-2.774;2022-07-29T19:07:51;101432.30;;;27.67;29.97
49108;BME280;36693;47.666;-2.774;2022-07-29T19:10:18;101431.99;;;27.75;29.87
49108;BME280;36693;47.666;-2.774;2022-07-29T19:12:46;101427.87;;;27.81;29.71
49108;BME280;36693;47.666;-2.774;2022-07-29T19:15:14;101430.01;;;27.34;30.18
49108;BME280;36693;47.666;-2.774;2022-07-29T19:17:41;101426.77;;;27.67;29.36
49108;BME280;36693;47.666;-2.774;2022-07-29T19:20:10;101426.17;;;28.02;28.94
49108;BME280;36693;47.666;-2.774;2022-07-29T19:22:38;101428.02;;;28.21;28.82
49108;BME280;36693;47.666;-2.774;2022-07-29T19:25:06;101430.23;;;28.13;29.35
49108;BME280;36693;47.666;-2.774;2022-07-29T19:27:34;101431.17;;;28.41;28.75
49108;BME280;36693;47.666;-2.774;2022-07-29T19:30:03;101442.10;;;27.41;29.94
49108;BME280;36693;47.666;-2.774;2022-07-29T19:32:30;101439.78;;;28.25;28.85
49108;BME280;36693;47.666;-2.774;2022-07-29T19:34:58;101444.57;;;28.42;28.67
49108;BME280;36693;47.666;-2.774;2022-07-29T19:37:26;101448.21;;;27.91;29.57
49108;BME280;36693;47.666;-2.774;2022-07-29T19:39:54;101452.80;;;28.50;28.93
49108;BME280;36693;47.666;-2.774;2022-07-29T19:42:21;101458.02;;;28.47;28.68
49108;BME280;36693;47.666;-2.774;2022-07-29T19:44:49;101460.27;;;28.52;28.62
49108;BME280;36693;47.666;-2.774;2022-07-29T19:47:17;101464.17;;;28.10;29.01
49108;BME280;36693;47.666;-2.774;2022-07-29T19:49:44;101465.72;;;28.01;29.16
49108;BME280;36693;47.666;-2.774;2022-07-29T19:52:12;101470.52;;;28.44;28.38
49108;BME280;36693;47.666;-2.774;2022-07-29T19:54:40;101476.70;;;28.92;27.99
49108;BME280;36693;47.666;-2.774;2022-07-29T19:57:08;101481.83;;;28.65;27.76
49108;BME280;36693;47.666;-2.774;2022-07-29T19:59:35;101489.08;;;27.93;28.18
49108;BME280;36693;47.666;-2.774;2022-07-29T20:02:03;101491.47;;;28.09;27.59
49108;BME280;36693;47.666;-2.774;2022-07-29T20:04:31;101495.83;;;27.42;27.91
49108;BME280;36693;47.666;-2.774;2022-07-29T20:06:58;101502.00;;;27.75;27.70
49108;BME280;36693;47.666;-2.774;2022-07-29T20:09:27;101507.66;;;26.94;28.02
49108;BME280;36693;47.666;-2.774;2022-07-29T20:11:54;101511.92;;;27.13;27.70
49108;BME280;36693;47.666;-2.774;2022-07-29T20:14:22;101515.84;;;27.17;27.87
49108;BME280;36693;47.666;-2.774;2022-07-29T20:16:49;101519.47;;;26.99;27.43
49108;BME280;36693;47.666;-2.774;2022-07-29T20:19:17;101520.75;;;26.83;27.67
49108;BME280;36693;47.666;-2.774;2022-07-29T20:21:44;101526.25;;;27.01;27.23
49108;BME280;36693;47.666;-2.774;2022-07-29T20:24:12;101531.97;;;27.28;27.07
49108;BME280;36693;47.666;-2.774;2022-07-29T20:26:40;101530.09;;;27.06;27.59
49108;BME280;36693;47.666;-2.774;2022-07-29T20:29:08;101534.77;;;25.95;28.56
49108;BME280;36693;47.666;-2.774;2022-07-29T20:31:35;101537.85;;;26.15;28.52
49108;BME280;36693;47.666;-2.774;2022-07-29T20:34:03;101543.13;;;25.41;29.42
49108;BME280;36693;47.666;-2.774;2022-07-29T20:36:31;101546.95;;;26.04;29.07
49108;BME280;36693;47.666;-2.774;2022-07-29T20:38:59;101553.82;;;26.09;28.64
49108;BME280;36693;47.666;-2.774;2022-07-29T20:41:27;101556.97;;;25.62;29.54
49108;BME280;36693;47.666;-2.774;2022-07-29T20:43:54;101560.96;;;25.27;29.89
49108;BME280;36693;47.666;-2.774;2022-07-29T20:46:22;101564.58;;;24.75;30.43
49108;BME280;36693;47.666;-2.774;2022-07-29T20:48:49;101564.94;;;24.61;31.06
49108;BME280;36693;47.666;-2.774;2022-07-29T20:51:18;101565.36;;;24.24;31.69
49108;BME280;36693;47.666;-2.774;2022-07-29T20:53:46;101567.24;;;24.37;31.42
49108;BME280;36693;47.666;-2.774;2022-07-29T20:56:14;101566.73;;;24.50;31.17
49108;BME280;36693;47.666;-2.774;2022-07-29T20:58:42;101569.45;;;24.40;31.58
49108;BME280;36693;47.666;-2.774;2022-07-29T21:01:10;101572.55;;;23.95;32.19
49108;BME280;36693;47.666;-2.774;2022-07-29T21:03:38;101570.52;;;23.91;31.69
49108;BME280;36693;47.666;-2.774;2022-07-29T21:06:05;101576.38;;;24.68;30.92
49108;BME280;36693;47.666;-2.774;2022-07-29T21:08:33;101580.09;;;24.60;31.43
49108;BME280;36693;47.666;-2.774;2022-07-29T21:11:00;101585.86;;;24.35;31.75
49108;BME280;36693;47.666;-2.774;2022-07-29T21:13:28;101588.27;;;23.86;31.98
49108;BME280;36693;47.666;-2.774;2022-07-29T21:15:56;101585.12;;;23.91;32.05
49108;BME280;36693;47.666;-2.774;2022-07-29T21:18:23;101584.14;;;24.40;31.46
49108;BME280;36693;47.666;-2.774;2022-07-29T21:20:51;101587.76;;;24.35;31.27
49108;BME280;36693;47.666;-2.774;2022-07-29T21:23:19;101587.19;;;24.74;31.36
49108;BME280;36693;47.666;-2.774;2022-07-29T21:25:46;101588.00;;;24.07;31.59
49108;BME280;36693;47.666;-2.774;2022-07-29T21:28:14;101588.06;;;24.04;31.53
49108;BME280;36693;47.666;-2.774;2022-07-29T21:30:42;101590.36;;;24.44;31.20
49108;BME280;36693;47.666;-2.774;2022-07-29T21:33:10;101591.08;;;24.13;31.07
49108;BME280;36693;47.666;-2.774;2022-07-29T21:35:38;101591.80;;;24.75;30.89
49108;BME280;36693;47.666;-2.774;2022-07-29T21:38:05;101589.96;;;24.50;31.26
49108;BME280;36693;47.666;-2.774;2022-07-29T21:40:33;101591.86;;;23.88;31.88
49108;BME280;36693;47.666;-2.774;2022-07-29T21:43:01;101589.35;;;24.38;31.64
49108;BME280;36693;47.666;-2.774;2022-07-29T21:45:28;101590.14;;;24.32;31.93
49108;BME280;36693;47.666;-2.774;2022-07-29T21:47:56;101591.90;;;24.13;32.11
49108;BME280;36693;47.666;-2.774;2022-07-29T21:50:23;101587.52;;;24.82;31.20
49108;BME280;36693;47.666;-2.774;2022-07-29T21:52:51;101586.15;;;24.32;31.29
49108;BME280;36693;47.666;-2.774;2022-07-29T21:55:19;101589.44;;;25.13;30.44
49108;BME280;36693;47.666;-2.774;2022-07-29T21:57:48;101593.95;;;24.19;31.86
49108;BME280;36693;47.666;-2.774;2022-07-29T22:00:16;101595.62;;;23.50;32.82
49108;BME280;36693;47.666;-2.774;2022-07-29T22:02:44;101599.56;;;24.17;31.65
49108;BME280;36693;47.666;-2.774;2022-07-29T22:05:12;101603.84;;;24.59;31.52
49108;BME280;36693;47.666;-2.774;2022-07-29T22:07:40;101608.55;;;24.86;30.80
49108;BME280;36693;47.666;-2.774;2022-07-29T22:10:08;101610.87;;;25.13;30.56
49108;BME280;36693;47.666;-2.774;2022-07-29T22:12:36;101611.19;;;25.32;30.22
49108;BME280;36693;47.666;-2.774;2022-07-29T22:15:04;101611.34;;;24.51;31.28
49108;BME280;36693;47.666;-2.774;2022-07-29T22:17:32;101615.66;;;24.35;31.52
49108;BME280;36693;47.666;-2.774;2022-07-29T22:20:00;101609.96;;;24.83;31.06
49108;BME280;36693;47.666;-2.774;2022-07-29T22:22:28;101611.79;;;24.00;31.78
49108;BME280;36693;47.666;-2.774;2022-07-29T22:24:55;101612.77;;;24.68;30.82
49108;BME280;36693;47.666;-2.774;2022-07-29T22:27:23;101616.55;;;24.59;31.37
49108;BME280;36693;47.666;-2.774;2022-07-29T22:29:50;101612.85;;;24.23;31.34
49108;BME280;36693;47.666;-2.774;2022-07-29T22:32:18;101616.38;;;24.02;31.95
49108;BME280;36693;47.666;-2.774;2022-07-29T22:34:46;101615.19;;;24.51;31.29
49108;BME280;36693;47.666;-2.774;2022-07-29T22:37:14;101617.35;;;24.58;31.27
49108;BME280;36693;47.666;-2.774;2022-07-29T22:39:41;101622.13;;;24.23;31.46
49108;BME280;36693;47.666;-2.774;2022-07-29T22:42:09;101624.81;;;24.77;30.47
49108;BME280;36693;47.666;-2.774;2022-07-29T22:44:36;101633.68;;;24.91;30.33
49108;BME280;36693;47.666;-2.774;2022-07-29T22:47:05;101643.17;;;24.29;31.17
49108;BME280;36693;47.666;-2.774;2022-07-29T22:49:32;101648.24;;;24.13;30.61
49108;BME280;36693;47.666;-2.774;2022-07-29T22:52:00;101646.74;;;23.14;32.06
49108;BME280;36693;47.666;-2.774;2022-07-29T22:54:27;101647.17;;;23.19;31.91
49108;BME280;36693;47.666;-2.774;2022-07-29T22:56:55;101649.08;;;23.68;31.49
49108;BME280;36693;47.666;-2.774;2022-07-29T22:59:22;101653.34;;;23.51;31.73
49108;BME280;36693;47.666;-2.774;2022-07-29T23:01:49;101656.28;;;23.61;31.55
49108;BME280;36693;47.666;-2.774;2022-07-29T23:04:17;101657.51;;;23.38;31.36
49108;BME280;36693;47.666;-2.774;2022-07-29T23:06:45;101662.08;;;23.25;32.00
49108;BME280;36693;47.666;-2.774;2022-07-29T23:09:13;101661.84;;;23.27;31.79
49108;BME280;36693;47.666;-2.774;2022-07-29T23:11:40;101666.34;;;23.29;31.50
49108;BME280;36693;47.666;-2.774;2022-07-29T23:14:08;101666.24;;;22.73;31.76
49108;BME280;36693;47.666;-2.774;2022-07-29T23:16:36;101660.68;;;23.01;30.82
49108;BME280;36693;47.666;-2.774;2022-07-29T23:19:04;101656.97;;;22.89;30.89
49108;BME280;36693;47.666;-2.774;2022-07-29T23:21:32;101653.60;;;22.77;30.87
49108;BME280;36693;47.666;-2.774;2022-07-29T23:24:00;101661.42;;;23.23;30.58
49108;BME280;36693;47.666;-2.774;2022-07-29T23:26:27;101667.97;;;23.23;30.44
49108;BME280;36693;47.666;-2.774;2022-07-29T23:28:55;101670.37;;;23.42;30.24
49108;BME280;36693;47.666;-2.774;2022-07-29T23:31:23;101666.01;;;23.34;30.30
49108;BME280;36693;47.666;-2.774;2022-07-29T23:33:50;101663.76;;;23.15;29.66
49108;BME280;36693;47.666;-2.774;2022-07-29T23:36:19;101668.12;;;23.43;29.35
49108;BME280;36693;47.666;-2.774;2022-07-29T23:38:46;101668.11;;;23.27;30.27
49108;BME280;36693;47.666;-2.774;2022-07-29T23:41:14;101669.17;;;23.39;29.42
49108;BME280;36693;47.666;-2.774;2022-07-29T23:43:42;101666.64;;;23.44;29.15
49108;BME280;36693;47.666;-2.774;2022-07-29T23:46:09;101666.84;;;23.83;28.78
49108;BME280;36693;47.666;-2.774;2022-07-29T23:48:37;101670.53;;;24.06;28.77
49108;BME280;36693;47.666;-2.774;2022-07-29T23:51:05;101672.82;;;23.84;28.76
49108;BME280;36693;47.666;-2.774;2022-07-29T23:53:34;101671.38;;;23.45;29.84
49108;BME280;36693;47.666;-2.774;2022-07-29T23:56:02;101674.22;;;23.75;28.43
49108;BME280;36693;47.666;-2.774;2022-07-29T23:58:30;101672.26;;;24.32;28.34
